UA5261 / N902EV 7700 Squawk Report (31st of March, 2020)

Aircraft CRJ2 Reg No. N902EV Age N/A
Model Regional-Jet Jet engines 2 First flight 03-02
Registered 07-17 Rollout 02-02 Delivered 20-03-02
Construction No. 7620 Line No. N/A Series 200ER
ADSHEX AC7712 Airline name Envoy Air Owner SkyWest Airlines
Airfield based Chicago O`Hare~IL~N First tracked N/A

Flight history for N902EV

Route Flight No Date Playback
???? N/A 2020-04-01 19:01:00
Denver Intl (DEN) - St George Muni (SGU) UA5261 2020-03-31 19:05:00
Colorado Springs Municipal (COS) - Denver Intl (DEN) UA5732 2020-03-31 15:40:00
Phoenix Sky Harbor Intl (PHX) - Colorado Springs Municipal (COS) AA3123 2020-03-31 03:28:00
???? N/A 2020-03-30 19:43:00
Dallas Fort Worth (DFW) - St George Muni (SGU) AA3127 2020-03-30 18:57:00
Key Field (MEI) - Dallas Fort Worth (DFW) AA3125 2020-03-30 14:18:00
Chicago Ohare Intl (ORD) - Key Field (MEI) AA3112 2020-03-30 03:27:00
Akron Canton Regional Airport (CAK) - Chicago Ohare Intl (ORD) AA3115 2020-03-30 00:26:00
Chicago Ohare Intl (ORD) - Akron Canton Regional Airport (CAK) AA3126 2020-03-29 03:13:00
Chicago Ohare Intl (ORD) - Yeager (CRW) - Chicago Ohare Intl (ORD) AA3130 2020-03-29 00:09:00
Charlottesville-Albemarle (CHO) - Chicago Ohare Intl (ORD) AA3110 2020-03-28 22:53:00
Chicago Ohare Intl (ORD) - Yeager (CRW) - Chicago Ohare Intl (ORD) AA3130 2020-03-28 20:47:00
Charlottesville-Albemarle (CHO) - Chicago Ohare Intl (ORD) AA3110 2020-03-28 13:34:00
Chicago Ohare Intl (ORD) - Charlottesville-Albemarle (CHO) AA3116 2020-03-28 11:35:00
Chicago Ohare Intl (ORD) - Yeager (CRW) - Chicago Ohare Intl (ORD) AA3130 2020-03-28 00:07:00
Chicago Ohare Intl (ORD) - Charlottesville-Albemarle (CHO) - Chicago Ohare Intl (ORD) AA3111 2020-03-27 19:00:00
Charlottesville-Albemarle (CHO) - Chicago Ohare Intl (ORD) AA3110 2020-03-27 13:41:00
Chicago Ohare Intl (ORD) - Charlottesville-Albemarle (CHO) AA3116 2020-03-27 11:42:00
Key Field (MEI) - Chicago Ohare Intl (ORD) AA3129 2020-03-27 01:25:00
Time Lat Lon Altitude Heading Speed Vertical Rate
2020-03-31 19:04:01 GMT 37.065948 -113.494614 3,150 203 145 -768
2020-03-31 19:03:51 GMT 37.072014 -113.491455 3,250 204 145 -576
2020-03-31 19:03:39 GMT 37.079414 -113.487518 3,400 204 149 -832
2020-03-31 19:03:30 GMT 37.085049 -113.484230 3,525 205 151 -1152
2020-03-31 19:03:18 GMT 37.094082 -113.479637 3,800 203 161 -1280
2020-03-31 19:03:09 GMT 37.099503 -113.476791 3,950 203 159 -1216
2020-03-31 19:02:59 GMT 37.107147 -113.472878 4,075 203 172 -640
2020-03-31 19:02:48 GMT 37.114792 -113.469078 4,300 202 187 -1344
2020-03-31 19:02:38 GMT 37.124012 -113.464050 4,475 206 201 -960
2020-03-31 19:02:27 GMT 37.133926 -113.458847 4,675 199 205 -960
2020-03-31 19:02:16 GMT 37.143631 -113.455635 4,800 192 203 -768
2020-03-31 19:02:06 GMT 37.153156 -113.453842 4,925 187 201 -704
2020-03-31 19:01:54 GMT 37.162792 -113.452942 5,075 181 199 -1216
2020-03-31 19:01:45 GMT 37.172009 -113.453659 5,325 168 198 -1728
2020-03-31 19:01:34 GMT 37.181442 -113.457741 5,600 147 209 -1664
2020-03-31 19:01:23 GMT 37.190277 -113.467209 5,925 132 216 -1664
2020-03-31 19:01:12 GMT 37.196869 -113.477318 6,250 126 217 -2304
2020-03-31 19:01:03 GMT 37.202545 -113.487076 6,650 125 218 -2560
2020-03-31 19:00:51 GMT 37.209000 -113.498299 7,075 125 226 -2048
2020-03-31 19:00:42 GMT 37.215225 -113.509338 7,375 126 230 -1472
2020-03-31 19:00:31 GMT 37.222412 -113.519920 7,450 136 244 -320
2020-03-31 19:00:21 GMT 37.231594 -113.529434 7,625 144 256 -1792
2020-03-31 19:00:10 GMT 37.242371 -113.538734 8,000 146 263 -2496
2020-03-31 18:59:59 GMT 37.253242 -113.547462 8,350 149 266 -2240
2020-03-31 18:59:44 GMT 37.269424 -113.558723 8,925 155 260 -2176
2020-03-31 18:59:38 GMT 37.275494 -113.561974 9,100 161 258 -1920
2020-03-31 18:59:28 GMT 37.287552 -113.566261 9,400 168 256 -1472
2020-03-31 18:59:18 GMT 37.299774 -113.569061 9,650 170 259 -1408
2020-03-31 18:59:05 GMT 37.316090 -113.572479 9,950 171 263 -1344
2020-03-31 18:58:55 GMT 37.327259 -113.574570 10,100 172 266 -1024
2020-03-31 18:58:46 GMT 37.339188 -113.576370 10,400 173 270 -1984
2020-03-31 18:58:34 GMT 37.352722 -113.578270 10,700 173 280 -1664
2020-03-31 18:58:25 GMT 37.366608 -113.580521 11,050 172 294 -2112
2020-03-31 18:58:14 GMT 37.381119 -113.582970 11,500 171 303 -3264
2020-03-31 18:58:01 GMT 37.397781 -113.586243 12,175 170 306 -2624
2020-03-31 18:57:53 GMT 37.410870 -113.589020 12,300 170 309 0
2020-03-31 18:57:41 GMT 37.426025 -113.592201 12,300 170 311 64
2020-03-31 18:57:32 GMT 37.440708 -113.595352 12,300 170 313 0
2020-03-31 18:57:19 GMT 37.457886 -113.599113 12,325 169 315 0
2020-03-31 18:57:08 GMT 37.473480 -113.602577 12,325 170 316 0
2020-03-31 18:57:00 GMT 37.486515 -113.605438 12,325 170 318 -64
2020-03-31 18:56:40 GMT 37.514820 -113.611588 12,325 170 320 0
2020-03-31 18:56:35 GMT 37.523293 -113.613441 12,325 170 320 -64
2020-03-31 18:56:26 GMT 37.534470 -113.615875 12,325 170 316 64
2020-03-31 18:56:18 GMT 37.547745 -113.618675 12,325 170 312 -64
2020-03-31 18:56:06 GMT 37.563629 -113.622063 12,350 170 305 -128
2020-03-31 18:55:51 GMT 37.584461 -113.626457 12,300 170 291 320
2020-03-31 18:55:42 GMT 37.596378 -113.629021 12,600 169 302 -1664
2020-03-31 18:55:34 GMT 37.606064 -113.631172 12,775 169 305 -1024
2020-03-31 18:55:24 GMT 37.622402 -113.634872 12,825 169 311 -192
2020-03-31 18:55:10 GMT 37.640579 -113.638901 12,925 170 314 -640
2020-03-31 18:55:03 GMT 37.652069 -113.641350 13,025 170 318 -832
2020-03-31 18:53:53 GMT 37.753738 -113.663094 14,000 170 311 -640
2020-03-31 18:53:47 GMT 37.767776 -113.666115 14,200 170 312
2020-03-31 18:52:46 GMT 37.855556 -113.685280 14,200 170 389
We lost coverage of the aircraft here for a total of 6 minutes
2020-03-31 18:46:25 GMT 38.499298 -113.670403 29,175 255 376 -4096
2020-03-31 18:46:16 GMT 38.503822 -113.649231 29,850 255 375 -4032
2020-03-31 18:46:05 GMT 38.508316 -113.628067 30,475 255 375 -3648
2020-03-31 18:45:56 GMT 38.512432 -113.608215 31,025 259 374 -3456
2020-03-31 18:45:46 GMT 38.514771 -113.584839 31,575 269 372 -1344
2020-03-31 18:45:36 GMT 38.515411 -113.562683 31,925 269 372 -1344
2020-03-31 18:45:25 GMT 38.516342 -113.524475 32,000 269 373 -64
2020-03-31 18:45:19 GMT 38.516342 -113.524475 32,000 269 374 0
2020-03-31 18:45:16 GMT 38.516483 -113.519226 32,000 269 374 0
2020-03-31 18:45:06 GMT 38.516949 -113.498535 32,000 269 373 0
2020-03-31 18:44:54 GMT 38.518021 -113.452087 32,000 269 368 0
2020-03-31 18:44:45 GMT 38.518021 -113.452087 32,000 269 371 0
2020-03-31 18:44:40 GMT 38.518341 -113.439629 32,000 269 370 0
2020-03-31 18:44:30 GMT 38.518860 -113.419373 32,000 269 368 0
2020-03-31 18:44:24 GMT 38.519276 -113.404175 32,000 269 369 64
2020-03-31 18:44:17 GMT 38.519531 -113.392639 32,000 269 368 0
2020-03-31 18:44:09 GMT 38.519974 -113.374634 32,000 269 368 0
2020-03-31 18:44:04 GMT 38.520355 -113.360992 32,000 269 368 0
2020-03-31 18:43:59 GMT 38.520535 -113.352966 32,025 269 368 0
2020-03-31 18:43:53 GMT 38.520859 -113.339111 32,025 269 368 0
2020-03-31 18:43:50 GMT 38.521046 -113.330383 32,025 269 369 0
2020-03-31 18:43:43 GMT 38.521420 -113.315613 32,000 269 370 64
2020-03-31 18:43:32 GMT 38.521976 -113.292480 32,000 269 371 -64
2020-03-31 18:43:21 GMT 38.522533 -113.268433 32,000 269 373 -64
2020-03-31 18:43:11 GMT 38.523048 -113.246460 32,000 269 373 -64
2020-03-31 18:43:00 GMT 38.523560 -113.221992 32,000 269 373 0
2020-03-31 18:42:56 GMT 38.523701 -113.215210 32,000 269 373 0
2020-03-31 18:42:47 GMT 38.524166 -113.193237 32,000 269 373 0
2020-03-31 18:42:40 GMT 38.524445 -113.178284 32,000 269 372 0
2020-03-31 18:42:28 GMT 38.524933 -113.152672 32,000 269 371 64
2020-03-31 18:42:17 GMT 38.525421 -113.126709 32,000 269 371 0
2020-03-31 18:42:08 GMT 38.525803 -113.109024 32,000 269 370 0
2020-03-31 18:41:57 GMT 38.526260 -113.084839 32,000 269 370 0
2020-03-31 18:41:25 GMT 38.527542 -113.017136 32,000 269 369 0
2020-03-31 18:41:20 GMT 38.527798 -113.002563 32,000 269 369 0
2020-03-31 18:41:10 GMT 38.528168 -112.983459 32,000 269 368 0
2020-03-31 18:41:00 GMT 38.528679 -112.956177 32,000 269 367 64
2020-03-31 18:40:50 GMT 38.529007 -112.940186 32,000 269 367 0
2020-03-31 18:40:47 GMT 38.529144 -112.932373 32,000 269 367 64
2020-03-31 18:40:39 GMT 38.529419 -112.916588 32,000 269 368 64
2020-03-31 18:40:27 GMT 38.530014 -112.887985 32,000 269 369 0
2020-03-31 18:40:15 GMT 38.530449 -112.864746 32,000 269 369 0
2020-03-31 18:40:00 GMT 38.531055 -112.830383 32,000 269 370 -64
2020-03-31 18:39:54 GMT 38.531193 -112.819519 32,000 269 369 0
2020-03-31 18:39:49 GMT 38.531387 -112.807976 32,000 269 369 0
2020-03-31 18:39:45 GMT 38.531570 -112.796211 32,000 269 369 0
2020-03-31 18:39:42 GMT 38.531662 -112.790604 32,000 269 369 0
2020-03-31 18:39:26 GMT 38.532265 -112.757385 32,000 269 368 64
2020-03-31 18:39:21 GMT 38.532486 -112.744568 32,000 269 368 0
2020-03-31 18:39:09 GMT 38.532917 -112.721802 32,000 269 368 64
2020-03-31 18:39:00 GMT 38.533337 -112.699219 32,000 269 369 0
2020-03-31 18:38:49 GMT 38.533756 -112.676636 32,000 269 369 0
2020-03-31 18:38:39 GMT 38.534134 -112.652496 32,000 269 370 0
2020-03-31 18:38:31 GMT 38.534405 -112.636536 32,000 269 371 0
2020-03-31 18:38:28 GMT 38.534500 -112.630646 32,000 269 371 0
2020-03-31 18:38:18 GMT 38.534870 -112.607727 32,000 269 371 0
2020-03-31 18:38:10 GMT 38.535107 -112.590210 32,000 269 372 64
2020-03-31 18:38:07 GMT 38.535198 -112.584961 32,000 269 372 0
2020-03-31 18:37:59 GMT 38.535461 -112.566811 32,000 269 372 0
2020-03-31 18:37:56 GMT 38.535568 -112.562622 32,000 269 372 0
2020-03-31 18:37:46 GMT 38.535873 -112.540482 32,000 269 372 0
2020-03-31 18:37:38 GMT 38.536221 -112.520996 32,000 269 373 0
2020-03-31 18:37:35 GMT 38.536285 -112.516777 32,000 269 373 0
2020-03-31 18:37:25 GMT 38.536686 -112.492371 32,000 269 374 0
2020-03-31 18:37:15 GMT 38.537018 -112.471039 32,000 269 374 0
2020-03-31 18:37:05 GMT 38.537388 -112.447449 32,000 269 374 0
2020-03-31 18:36:51 GMT 38.537842 -112.419868 32,000 269 375 0
2020-03-31 18:36:42 GMT 38.538177 -112.397583 32,000 269 375 0
2020-03-31 18:36:32 GMT 38.538483 -112.377899 32,000 269 376 0
2020-03-31 18:36:23 GMT 38.538849 -112.353951 32,000 269 377 0
2020-03-31 18:36:08 GMT 38.539307 -112.322906 32,000 269 377 0
2020-03-31 18:36:02 GMT 38.539528 -112.308899 32,000 269 377 0
2020-03-31 18:35:51 GMT 38.539852 -112.285339 32,000 269 377 0
2020-03-31 18:35:45 GMT 38.540085 -112.272461 32,000 269 377 0
2020-03-31 18:35:41 GMT 38.540226 -112.261780 32,000 269 377 0
2020-03-31 18:35:30 GMT 38.540588 -112.238899 32,000 269 378 0
2020-03-31 18:35:18 GMT 38.540924 -112.213257 32,000 269 378 -64
2020-03-31 18:35:08 GMT 38.541203 -112.190979 32,000 270 378 0
2020-03-31 18:35:04 GMT 38.541367 -112.180084 32,000 270 378 0
2020-03-31 18:34:58 GMT 38.541504 -112.168503 32,000 270 378 0
2020-03-31 18:34:53 GMT 38.541641 -112.155128 32,000 270 378 0
2020-03-31 18:34:46 GMT 38.541870 -112.137810 32,000 270 377 0
2020-03-31 18:34:42 GMT 38.541992 -112.128723 32,000 270 377 0
2020-03-31 18:34:35 GMT 38.542133 -112.117615 32,000 270 377 0
2020-03-31 18:34:23 GMT 38.542507 -112.087830 32,000 270 377 0
2020-03-31 18:34:15 GMT 38.542694 -112.072266 32,000 270 378 -64
2020-03-31 18:34:04 GMT 38.542973 -112.048218 32,000 270 378 0
2020-03-31 18:33:59 GMT 38.543114 -112.033997 32,000 270 377 0
2020-03-31 18:33:49 GMT 38.543335 -112.013321 32,000 270 377 0
2020-03-31 18:33:40 GMT 38.543575 -111.993042 32,000 270 377 0
2020-03-31 18:33:35 GMT 38.543655 -111.983940 32,000 270 377 0
2020-03-31 18:33:25 GMT 38.543903 -111.960205 32,000 270 376 0
2020-03-31 18:33:19 GMT 38.544067 -111.944954 32,000 270 376 64
2020-03-31 18:33:12 GMT 38.544205 -111.931221 32,000 270 375 0
2020-03-31 18:33:08 GMT 38.544323 -111.922119 32,000 270 376 0
2020-03-31 18:33:02 GMT 38.544460 -111.911072 32,000 270 375 0
2020-03-31 18:32:58 GMT 38.544601 -111.898254 32,000 270 375 0
2020-03-31 18:32:47 GMT 38.544846 -111.875931 32,000 270 375 0
2020-03-31 18:32:37 GMT 38.545120 -111.852524 32,000 270 374 0
2020-03-31 18:32:25 GMT 38.545349 -111.829117 32,000 270 375 0
2020-03-31 18:32:13 GMT 38.545578 -111.803085 32,000 270 375 0
2020-03-31 18:32:02 GMT 38.545853 -111.777054 32,000 270 375 0
2020-03-31 18:31:54 GMT 38.545990 -111.760216 32,000 270 375 0
2020-03-31 18:31:46 GMT 38.546173 -111.742538 32,000 270 376 -64
2020-03-31 18:31:39 GMT 38.546326 -111.725037 32,000 270 376 -64
2020-03-31 18:31:27 GMT 38.546509 -111.700684 32,000 270 376 -64
2020-03-31 18:31:15 GMT 38.546696 -111.671875 32,000 270 376 -64
2020-03-31 18:31:06 GMT 38.546814 -111.654831 32,000 270 375 0
2020-03-31 18:30:57 GMT 38.546997 -111.630531 32,000 270 375 0
2020-03-31 18:30:45 GMT 38.547207 -111.606506 32,000 270 374 0
2020-03-31 18:30:35 GMT 38.547363 -111.582939 32,000 270 374 64
We lost coverage of the aircraft here for a total of 14 minutes
2020-03-31 18:16:35 GMT 38.631546 -109.753120 32,000 255 371 -64
2020-03-31 18:16:25 GMT 38.635704 -109.733887 32,000 255 371 0
2020-03-31 18:16:16 GMT 38.640427 -109.712158 32,000 255 371 0
2020-03-31 18:16:05 GMT 38.644920 -109.691284 32,000 255 370 0
2020-03-31 18:15:55 GMT 38.649574 -109.669800 32,000 255 370 -64
2020-03-31 18:15:44 GMT 38.654480 -109.647255 32,000 255 369 0
2020-03-31 18:15:35 GMT 38.659012 -109.626236 32,000 255 369 64
2020-03-31 18:15:23 GMT 38.664009 -109.602905 32,000 255 369 64
2020-03-31 18:15:13 GMT 38.668579 -109.581757 32,000 255 369 0
2020-03-31 18:15:04 GMT 38.673134 -109.560547 32,000 255 368 0
2020-03-31 18:14:53 GMT 38.677460 -109.540405 32,000 255 368 0
2020-03-31 18:14:43 GMT 38.682404 -109.517570 32,000 255 368 0
2020-03-31 18:14:32 GMT 38.687237 -109.495117 32,000 255 368 0
2020-03-31 18:14:23 GMT 38.691559 -109.474762 32,000 255 368 0
2020-03-31 18:14:12 GMT 38.696129 -109.453613 32,000 255 368 0
2020-03-31 18:14:02 GMT 38.700714 -109.432068 32,000 255 368 0
2020-03-31 18:13:51 GMT 38.705429 -109.409859 32,000 255 367 0
2020-03-31 18:13:41 GMT 38.709953 -109.388733 32,000 255 367 0
2020-03-31 18:13:31 GMT 38.714470 -109.367371 32,000 256 367 0
2020-03-31 18:13:20 GMT 38.719162 -109.344955 32,000 255 366 0
2020-03-31 18:13:11 GMT 38.723827 -109.322998 32,000 255 366 0
2020-03-31 18:13:00 GMT 38.728249 -109.302063 32,000 255 366 -64
2020-03-31 18:12:49 GMT 38.732758 -109.280945 32,000 255 366 0
2020-03-31 18:12:39 GMT 38.737244 -109.259689 32,000 255 365 0
2020-03-31 18:12:29 GMT 38.741703 -109.238647 32,000 255 365 0
2020-03-31 18:12:19 GMT 38.746353 -109.216698 32,000 255 365 0
2020-03-31 18:12:08 GMT 38.750874 -109.195251 32,000 255 365 0
2020-03-31 18:11:59 GMT 38.755390 -109.173950 32,000 255 366 0
2020-03-31 18:11:48 GMT 38.759811 -109.152809 32,000 255 366 64
2020-03-31 18:11:37 GMT 38.764561 -109.130432 32,000 255 366 64
2020-03-31 18:11:27 GMT 38.769032 -109.109070 32,000 255 366 0
2020-03-31 18:11:17 GMT 38.773731 -109.086914 32,000 256 367 0
2020-03-31 18:11:07 GMT 38.777985 -109.066536 32,000 256 367 0
2020-03-31 18:10:56 GMT 38.782471 -109.045097 32,000 255 368 0
2020-03-31 18:10:47 GMT 38.787045 -109.023438 32,000 256 369 0
2020-03-31 18:10:36 GMT 38.791794 -109.000671 32,000 255 369 0
2020-03-31 18:10:24 GMT 38.797146 -108.975342 32,000 255 369 0
2020-03-31 18:10:15 GMT 38.800873 -108.957581 32,000 255 370 -64
2020-03-31 18:10:05 GMT 38.805386 -108.935974 32,000 255 370 0
2020-03-31 18:09:55 GMT 38.809982 -108.914162 32,000 255 370 0
2020-03-31 18:09:44 GMT 38.814606 -108.891907 32,000 256 371 64
2020-03-31 18:09:35 GMT 38.819046 -108.870453 32,000 256 372 64
2020-03-31 18:09:23 GMT 38.823807 -108.847466 32,000 256 373 0
2020-03-31 18:09:13 GMT 38.828243 -108.825867 32,000 256 374 0
2020-03-31 18:08:58 GMT 38.834885 -108.793968 32,000 256 375 -64
2020-03-31 18:08:53 GMT 38.837414 -108.781677 32,000 256 376 -64
2020-03-31 18:08:43 GMT 38.841885 -108.760193 32,000 256 376 0
2020-03-31 18:08:32 GMT 38.846630 -108.737366 32,000 256 376 0
2020-03-31 18:08:23 GMT 38.850906 -108.716881 32,000 256 376 0
2020-03-31 18:08:12 GMT 38.855621 -108.694016 32,000 256 377 64
2020-03-31 18:08:01 GMT 38.860382 -108.671143 32,000 256 377 64
2020-03-31 18:07:50 GMT 38.865253 -108.647583 32,000 256 378 0
2020-03-31 18:07:41 GMT 38.869442 -108.627258 32,000 256 377 0
2020-03-31 18:07:30 GMT 38.874424 -108.603027 32,000 256 377 0
2020-03-31 18:07:19 GMT 38.879265 -108.579224 32,000 256 377 0
2020-03-31 18:07:11 GMT 38.883316 -108.559608 32,000 256 377 64
2020-03-31 18:07:00 GMT 38.887848 -108.537521 32,000 256 377 0
2020-03-31 18:06:49 GMT 38.892254 -108.516113 32,000 256 377 0
2020-03-31 18:06:39 GMT 38.896954 -108.493164 32,000 256 378 0
2020-03-31 18:06:29 GMT 38.901611 -108.470703 32,000 256 378 0
2020-03-31 18:06:19 GMT 38.906067 -108.448792 32,000 256 378 0
2020-03-31 18:06:08 GMT 38.910645 -108.426285 32,000 256 378 0
2020-03-31 18:05:58 GMT 38.915771 -108.401146 32,000 256 378 0
2020-03-31 18:05:47 GMT 38.920258 -108.379051 32,000 256 378 0
2020-03-31 18:05:36 GMT 38.924835 -108.356483 32,000 256 378 0
2020-03-31 18:05:26 GMT 38.929367 -108.334328 32,000 256 378 0
2020-03-31 18:05:15 GMT 38.933872 -108.311951 32,000 256 379 0
2020-03-31 18:05:05 GMT 38.938248 -108.290222 32,000 256 378 0
2020-03-31 18:04:55 GMT 38.942917 -108.266983 32,000 256 380 64
2020-03-31 18:04:44 GMT 38.947605 -108.243652 32,000 256 380 -64
2020-03-31 18:04:35 GMT 38.952118 -108.221375 32,000 256 380 -64
2020-03-31 18:04:24 GMT 38.956402 -108.200012 32,000 256 380 0
2020-03-31 18:04:13 GMT 38.961010 -108.177307 32,000 256 380 0
2020-03-31 18:04:03 GMT 38.965527 -108.154663 32,000 256 380 0
2020-03-31 18:03:53 GMT 38.970367 -108.130737 32,000 256 379 0
2020-03-31 18:03:42 GMT 38.974869 -108.108337 32,000 256 379 0
2020-03-31 18:03:32 GMT 38.979305 -108.086365 32,000 256 378 0
2020-03-31 18:03:21 GMT 38.983704 -108.064392 32,000 256 379 0
2020-03-31 18:03:11 GMT 38.988571 -108.040161 32,000 256 379 0
2020-03-31 18:03:01 GMT 38.992630 -108.019608 32,000 256 380 0
2020-03-31 18:02:50 GMT 38.997459 -107.995544 32,000 256 380 0
2020-03-31 18:02:41 GMT 39.001789 -107.973694 32,000 256 380 0
2020-03-31 18:02:30 GMT 39.006363 -107.950706 32,000 256 380 0
2020-03-31 18:02:19 GMT 39.010914 -107.927795 32,000 256 379 0
2020-03-31 18:02:10 GMT 39.015198 -107.906219 32,000 256 378 64
2020-03-31 18:01:59 GMT 39.019501 -107.884430 32,000 256 378 0
2020-03-31 18:01:49 GMT 39.024033 -107.861320 32,000 256 378 -64
2020-03-31 18:01:38 GMT 39.028519 -107.838692 32,000 256 378 0
2020-03-31 18:01:29 GMT 39.032749 -107.817139 32,000 256 378 0
2020-03-31 18:01:17 GMT 39.037491 -107.792953 32,000 256 378 0
2020-03-31 18:01:08 GMT 39.041656 -107.772057 32,000 256 378 64
2020-03-31 18:00:57 GMT 39.046204 -107.749207 32,000 256 378 -64
2020-03-31 18:00:47 GMT 39.050716 -107.726562 32,000 256 378 64
2020-03-31 18:00:36 GMT 39.055187 -107.703918 32,000 256 379 64
2020-03-31 18:00:26 GMT 39.059467 -107.682007 32,000 256 380 0
2020-03-31 18:00:17 GMT 39.063766 -107.660339 32,000 256 380 0
2020-03-31 18:00:06 GMT 39.068344 -107.637177 32,000 256 380 -64
2020-03-31 17:59:55 GMT 39.073063 -107.613281 32,000 256 380 0
2020-03-31 17:59:45 GMT 39.077454 -107.590721 32,000 257 380 0
2020-03-31 17:57:32 GMT 39.134033 -107.299171 32,000 257 380 64
2020-03-31 17:57:27 GMT 39.135956 -107.289307 32,000 257 380 64
2020-03-31 17:57:16 GMT 39.140842 -107.263916 32,000 256 379 0
2020-03-31 17:57:06 GMT 39.144608 -107.244415 32,000 256 379 0
2020-03-31 17:56:57 GMT 39.149082 -107.221558 32,000 257 378 64
2020-03-31 17:56:46 GMT 39.153580 -107.198257 32,000 257 377 -64
2020-03-31 17:56:35 GMT 39.157974 -107.175415 32,000 257 376 0
2020-03-31 17:56:25 GMT 39.162395 -107.152405 32,000 257 375 -64
2020-03-31 17:56:13 GMT 39.166946 -107.128761 32,025 257 375 0
2020-03-31 17:56:07 GMT 39.169556 -107.114906 32,000 257 375 64
2020-03-31 17:56:04 GMT 39.171192 -107.106445 32,000 257 375 64
2020-03-31 17:55:57 GMT 39.173569 -107.093872 32,000 257 375 64
2020-03-31 17:55:52 GMT 39.175571 -107.083435 32,000 257 375 0
2020-03-31 17:55:47 GMT 39.177887 -107.071503 32,000 257 375 0
2020-03-31 17:55:42 GMT 39.180504 -107.057861 32,000 257 374 0
2020-03-31 17:55:37 GMT 39.182053 -107.049828 32,000 257 374 0
2020-03-31 17:55:31 GMT 39.184647 -107.036194 32,000 257 374 0
2020-03-31 17:55:19 GMT 39.189304 -107.012024 32,000 257 373 0
2020-03-31 17:55:15 GMT 39.191162 -107.002296 32,000 257 373 0
2020-03-31 17:55:10 GMT 39.193542 -106.989822 32,000 257 373 0
2020-03-31 17:55:04 GMT 39.195683 -106.978394 32,000 257 373 0
2020-03-31 17:54:58 GMT 39.197891 -106.966949 32,000 257 373 -64
2020-03-31 17:54:55 GMT 39.199730 -106.957275 32,000 257 373 -64
2020-03-31 17:54:49 GMT 39.202339 -106.943481 32,000 257 373 -64
2020-03-31 17:54:44 GMT 39.204025 -106.934586 32,000 257 373 0
2020-03-31 17:54:37 GMT 39.206573 -106.921448 32,000 257 372 0
2020-03-31 17:54:34 GMT 39.208389 -106.911987 32,000 257 372 0
2020-03-31 17:54:27 GMT 39.211029 -106.897926 32,000 257 372 0
2020-03-31 17:54:22 GMT 39.212769 -106.888908 32,000 257 372 64
2020-03-31 17:54:17 GMT 39.215469 -106.874702 32,000 257 372 0
2020-03-31 17:54:13 GMT 39.216980 -106.866936 32,000 257 372 0
2020-03-31 17:54:06 GMT 39.219704 -106.852539 32,000 257 371 -64
2020-03-31 17:54:02 GMT 39.221237 -106.844551 32,000 257 371 -64
2020-03-31 17:53:52 GMT 39.225494 -106.822220 32,000 257 371 0
2020-03-31 17:53:45 GMT 39.228653 -106.805496 32,000 257 370 0
2020-03-31 17:53:41 GMT 39.229664 -106.800171 32,000 257 370 0
2020-03-31 17:53:33 GMT 39.233295 -106.780884 32,000 257 370 64
2020-03-31 17:53:30 GMT 39.234009 -106.777260 32,000 257 370 64
2020-03-31 17:53:23 GMT 39.237442 -106.758804 32,000 257 370 64
2020-03-31 17:53:20 GMT 39.238182 -106.754761 32,000 257 370 64
2020-03-31 17:53:13 GMT 39.240883 -106.740601 32,000 257 370 0
2020-03-31 17:53:09 GMT 39.242512 -106.732056 32,000 257 371 -64
2020-03-31 17:53:03 GMT 39.245445 -106.716614 32,000 255 372 0
2020-03-31 17:53:00 GMT 39.246750 -106.710205 32,000 254 372 64
2020-03-31 17:52:51 GMT 39.250900 -106.693008 32,000 252 374 64
2020-03-31 17:52:48 GMT 39.252335 -106.687744 32,000 250 375 64
2020-03-31 17:52:39 GMT 39.258408 -106.666557 32,000 250 376 64
2020-03-31 17:52:34 GMT 39.261971 -106.654175 32,000 250 376 0
2020-03-31 17:52:28 GMT 39.264904 -106.644043 32,000 250 377 0
2020-03-31 17:52:21 GMT 39.269211 -106.629120 32,000 250 378 64
2020-03-31 17:52:18 GMT 39.271420 -106.621277 32,000 250 378 0
2020-03-31 17:52:14 GMT 39.273983 -106.612427 32,000 250 378 64
2020-03-31 17:52:10 GMT 39.275749 -106.606079 32,000 250 378 64
2020-03-31 17:52:07 GMT 39.277565 -106.599731 32,000 250 378 64
2020-03-31 17:52:02 GMT 39.280827 -106.588318 32,000 250 379 0
2020-03-31 17:51:56 GMT 39.283813 -106.577888 32,000 250 380 0
2020-03-31 17:51:52 GMT 39.286240 -106.569412 32,000 250 381 -64
2020-03-31 17:51:46 GMT 39.290543 -106.554489 32,000 250 382 0
2020-03-31 17:51:40 GMT 39.295761 -106.536095 32,000 250 383 0
2020-03-31 17:51:37 GMT 39.295761 -106.536095 32,000 250 383 -64
2020-03-31 17:51:31 GMT 39.302795 -106.511414 32,000 250 384 -128
2020-03-31 17:51:26 GMT 39.302795 -106.511414 32,025 250 384 -128
2020-03-31 17:51:19 GMT 39.306931 -106.496986 32,000 250 384 -64
2020-03-31 17:51:15 GMT 39.309174 -106.489014 32,000 250 384 -64
2020-03-31 17:51:10 GMT 39.312103 -106.478897 32,000 250 385 0
2020-03-31 17:51:05 GMT 39.315628 -106.466415 32,000 250 385 0
2020-03-31 17:51:00 GMT 39.318192 -106.457397 32,000 250 384 0
2020-03-31 17:50:54 GMT 39.322071 -106.443787 32,000 250 385 0
2020-03-31 17:50:47 GMT 39.326447 -106.428284 32,000 250 385 64
2020-03-31 17:50:43 GMT 39.328400 -106.421387 32,000 250 384 64
2020-03-31 17:50:39 GMT 39.331787 -106.409576 32,000 250 384 64
2020-03-31 17:50:32 GMT 39.335449 -106.396675 32,000 250 384 64
2020-03-31 17:50:28 GMT 39.337944 -106.387878 32,000 250 384 0
2020-03-31 17:50:21 GMT 39.342728 -106.370880 32,000 251 383 -64
2020-03-31 17:50:18 GMT 39.343918 -106.366585 32,000 251 383 0
2020-03-31 17:50:12 GMT 39.347858 -106.352661 32,000 251 383 0
2020-03-31 17:50:09 GMT 39.349503 -106.346878 32,000 250 382 64
2020-03-31 17:50:06 GMT 39.351334 -106.340431 32,000 250 382 0
2020-03-31 17:50:01 GMT 39.354424 -106.329529 32,000 250 382 0
2020-03-31 17:49:58 GMT 39.356239 -106.323120 32,000 250 381 0
2020-03-31 17:49:52 GMT 39.360168 -106.309265 32,000 250 379 -64
2020-03-31 17:49:49 GMT 39.362057 -106.302673 32,000 250 378 -64
2020-03-31 17:49:46 GMT 39.363419 -106.297798 32,000 250 375 -64
2020-03-31 17:49:43 GMT 39.365177 -106.291687 32,000 250 376 -64
2020-03-31 17:49:40 GMT 39.367317 -106.284058 32,000 250 375 -64
2020-03-31 17:49:37 GMT 39.369133 -106.277771 32,025 251 374 -64
2020-03-31 17:49:31 GMT 39.372810 -106.264771 32,000 251 372 64
2020-03-31 17:49:28 GMT 39.374405 -106.259171 32,000 250 369 0
2020-03-31 17:49:25 GMT 39.375511 -106.255188 32,000 250 369 0
2020-03-31 17:49:18 GMT 39.379532 -106.240898 32,000 250 368 -64
2020-03-31 17:49:15 GMT 39.381775 -106.233078 32,000 250 368 -64
2020-03-31 17:49:08 GMT 39.386265 -106.217285 32,025 250 364 -128
2020-03-31 17:49:05 GMT 39.387196 -106.213989 32,025 250 364 -64
2020-03-31 17:48:58 GMT 39.391434 -106.198975 32,025 251 360 0
2020-03-31 17:48:55 GMT 39.392944 -106.193550 32,025 250 358 64
2020-03-31 17:48:51 GMT 39.395325 -106.185074 32,000 251 357 128
2020-03-31 17:48:46 GMT 39.399078 -106.171875 32,000 250 355 64
2020-03-31 17:48:39 GMT 39.402744 -106.158997 32,000 250 353 64
2020-03-31 17:48:35 GMT 39.404572 -106.152473 31,975 251 352 128
2020-03-31 17:48:31 GMT 39.406815 -106.144585 31,975 251 348 896
2020-03-31 17:48:25 GMT 39.412800 -106.123230 31,850 251 349 960
2020-03-31 17:48:18 GMT 39.416153 -106.111275 31,750 251 349 1024
2020-03-31 17:48:14 GMT 39.416153 -106.111275 31,725 251 349 1152
2020-03-31 17:48:09 GMT 39.418579 -106.102615 31,625 251 349 1344
2020-03-31 17:48:05 GMT 39.421040 -106.093750 31,475 251 352 1536
2020-03-31 17:48:02 GMT 39.423275 -106.085876 31,425 251 353 1472
2020-03-31 17:47:57 GMT 39.425694 -106.077148 31,325 251 353 1280
2020-03-31 17:47:53 GMT 39.427929 -106.069153 31,225 251 355 1152
2020-03-31 17:47:50 GMT 39.429047 -106.065186 31,200 251 355 1088
2020-03-31 17:47:44 GMT 39.433052 -106.050842 31,050 251 355 896
2020-03-31 17:47:40 GMT 39.435608 -106.041893 31,000 251 355 832
2020-03-31 17:47:33 GMT 39.439476 -106.028137 30,925 251 354 448
2020-03-31 17:47:29 GMT 39.441742 -106.019974 30,900 250 353 384
2020-03-31 17:47:26 GMT 39.443436 -106.014008 30,875 250 352 384
2020-03-31 17:47:22 GMT 39.445152 -106.007935 30,875 250 351 384
2020-03-31 17:47:18 GMT 39.447327 -106.000214 30,850 250 350 448
2020-03-31 17:47:15 GMT 39.449066 -105.994141 30,825 251 349 448
2020-03-31 17:47:12 GMT 39.450531 -105.988869 30,800 251 349 512
2020-03-31 17:47:08 GMT 39.452957 -105.980209 30,750 251 348 640
2020-03-31 17:47:05 GMT 39.454742 -105.973755 30,725 251 348 768
2020-03-31 17:47:02 GMT 39.456371 -105.967896 30,650 251 347 1024
2020-03-31 17:46:59 GMT 39.458038 -105.961823 30,625 251 348 1280
2020-03-31 17:46:54 GMT 39.460236 -105.953796 30,500 251 349 1472
2020-03-31 17:46:51 GMT 39.462067 -105.947311 30,425 251 349 1472
2020-03-31 17:46:48 GMT 39.463867 -105.940857 30,300 251 350 1344
2020-03-31 17:46:44 GMT 39.466431 -105.931763 30,250 251 352 768
2020-03-31 17:46:41 GMT 39.468060 -105.925842 30,200 251 352 896
2020-03-31 17:46:38 GMT 39.469501 -105.920715 30,150 251 352 768
2020-03-31 17:46:34 GMT 39.472000 -105.911842 30,125 251 351 640
2020-03-31 17:46:31 GMT 39.473503 -105.906555 30,100 251 351 640
2020-03-31 17:46:28 GMT 39.475021 -105.901215 30,075 251 348 512
2020-03-31 17:46:25 GMT 39.476212 -105.896919 30,050 251 349 576
2020-03-31 17:46:21 GMT 39.478317 -105.889458 29,975 251 346 384
2020-03-31 17:46:18 GMT 39.479965 -105.883606 30,000 251 346 384
2020-03-31 17:46:13 GMT 39.483353 -105.871544 29,950 251 345 640
2020-03-31 17:46:09 GMT 39.485470 -105.863953 29,900 251 344 768
2020-03-31 17:46:06 GMT 39.487106 -105.857925 29,875 251 344 832
2020-03-31 17:46:03 GMT 39.488773 -105.851990 29,800 251 344 960
2020-03-31 17:46:00 GMT 39.490498 -105.845764 29,750 251 344 1024
2020-03-31 17:45:56 GMT 39.492638 -105.838013 29,650 251 344 1152
2020-03-31 17:45:51 GMT 39.495163 -105.828972 29,600 251 344 1216
2020-03-31 17:45:47 GMT 39.497314 -105.821205 29,525 251 344 1280
2020-03-31 17:45:44 GMT 39.498276 -105.817741 29,475 251 345 1344
2020-03-31 17:45:38 GMT 39.501762 -105.805115 29,350 251 345 1472
2020-03-31 17:45:35 GMT 39.504044 -105.796730 29,200 251 346 1408
2020-03-31 17:45:29 GMT 39.506325 -105.788330 29,100 251 346 1408
2020-03-31 17:45:26 GMT 39.508621 -105.779953 29,025 251 347 1152
2020-03-31 17:45:21 GMT 39.511459 -105.769798 28,900 251 346 1152
2020-03-31 17:45:18 GMT 39.515350 -105.755768 28,825 251 346 1088
2020-03-31 17:45:14 GMT 39.515350 -105.755768 28,775 251 345 1088
2020-03-31 17:45:07 GMT 39.518463 -105.744545 28,675 251 343 1152
2020-03-31 17:45:04 GMT 39.520428 -105.737366 28,625 251 342 1152
2020-03-31 17:44:59 GMT 39.523083 -105.727722 28,525 251 341 1088
2020-03-31 17:44:56 GMT 39.524597 -105.722153 28,450 251 339 1280
2020-03-31 17:44:52 GMT 39.526657 -105.714508 28,375 251 338 1472
2020-03-31 17:44:47 GMT 39.529274 -105.704773 28,225 251 338 1600
2020-03-31 17:44:44 GMT 39.530869 -105.698868 28,175 251 337 1472
2020-03-31 17:44:38 GMT 39.533928 -105.687683 28,050 251 336 1152
2020-03-31 17:44:34 GMT 39.535374 -105.682373 27,975 251 334 1152
2020-03-31 17:44:31 GMT 39.537369 -105.675041 27,925 251 333 1152
2020-03-31 17:44:27 GMT 39.539337 -105.667877 27,875 251 333 1088
2020-03-31 17:44:23 GMT 39.541855 -105.658501 27,775 251 332 1024
2020-03-31 17:44:17 GMT 39.544449 -105.648926 27,700 251 330 1152
2020-03-31 17:44:14 GMT 39.545753 -105.644104 27,650 251 330 1216
2020-03-31 17:44:11 GMT 39.547852 -105.636475 27,550 251 329 1600
2020-03-31 17:44:08 GMT 39.549107 -105.631836 27,475 251 330 1664
2020-03-31 17:44:05 GMT 39.550922 -105.625488 27,425 250 330 1792
2020-03-31 17:44:01 GMT 39.552612 -105.619751 27,275 248 332 1792
2020-03-31 17:43:55 GMT 39.556549 -105.607635 27,150 247 335 1600
2020-03-31 17:43:52 GMT 39.558380 -105.602081 27,025 247 336 1408
2020-03-31 17:43:49 GMT 39.560257 -105.596527 26,950 247 336 1344
2020-03-31 17:43:46 GMT 39.561722 -105.592110 26,925 247 336 1280
2020-03-31 17:43:43 GMT 39.563324 -105.587334 26,850 247 336 1088
2020-03-31 17:43:40 GMT 39.565632 -105.580505 26,800 247 335 896
2020-03-31 17:43:36 GMT 39.568005 -105.573486 26,750 247 335 704
2020-03-31 17:43:33 GMT 39.569504 -105.568939 26,725 247 334 576
2020-03-31 17:43:29 GMT 39.572147 -105.561035 26,700 247 331 512
2020-03-31 17:43:26 GMT 39.575684 -105.550308 26,650 247 329 640
2020-03-31 17:43:23 GMT 39.577923 -105.543640 26,600 247 328 768
2020-03-31 17:43:19 GMT 39.577923 -105.543640 26,575 247 327 1024
2020-03-31 17:43:15 GMT 39.580761 -105.535034 26,475 247 325 1664
2020-03-31 17:43:12 GMT 39.582458 -105.529892 26,375 247 325 1920
2020-03-31 17:43:08 GMT 39.584885 -105.522728 26,250 247 325 2176
2020-03-31 17:43:05 GMT 39.586533 -105.517769 26,150 247 325 2112
2020-03-31 17:43:02 GMT 39.588318 -105.512398 26,050 247 325 1856
2020-03-31 17:42:58 GMT 39.590332 -105.506310 25,950 247 325 1536
2020-03-31 17:42:55 GMT 39.592987 -105.498428 25,850 247 323 1344
2020-03-31 17:42:51 GMT 39.594727 -105.493050 25,825 247 323 1280
2020-03-31 17:42:48 GMT 39.596684 -105.487183 25,725 248 322 1280
2020-03-31 17:42:44 GMT 39.599335 -105.479065 25,625 247 321 1408
2020-03-31 17:42:41 GMT 39.600872 -105.474426 25,575 247 321 1408
2020-03-31 17:42:37 GMT 39.602692 -105.468925 25,400 247 320 1664
2020-03-31 17:42:34 GMT 39.604568 -105.463318 25,400 247 320 1664
2020-03-31 17:42:31 GMT 39.607132 -105.455551 25,300 247 320 1664
2020-03-31 17:42:28 GMT 39.608833 -105.450439 25,200 247 321 1728
2020-03-31 17:42:23 GMT 39.611572 -105.442123 24,425 247 322 1728
2020-03-31 17:42:20 GMT 39.613300 -105.437012 25,000 247 322 1664
2020-03-31 17:42:16 GMT 39.615070 -105.431702 24,925 247 322 1472
2020-03-31 17:42:13 GMT 39.617111 -105.425461 24,825 247 321 1408
2020-03-31 17:42:10 GMT 39.618759 -105.420509 24,750 247 321 1408
2020-03-31 17:42:07 GMT 39.621185 -105.413101 24,650 248 321 1600
2020-03-31 17:42:04 GMT 39.622696 -105.408501 24,575 248 321 1664
2020-03-31 17:42:00 GMT 39.625031 -105.401398 24,475 247 320 1792
2020-03-31 17:41:57 GMT 39.626862 -105.395782 24,375 247 321 1792
2020-03-31 17:41:53 GMT 39.630844 -105.383728 24,225 247 321 1664
2020-03-31 17:41:50 GMT 39.630844 -105.383728 24,200 247 322 1472
2020-03-31 17:41:46 GMT 39.633270 -105.376465 24,100 247 320 1216
2020-03-31 17:41:43 GMT 39.635181 -105.370850 24,050 247 320 1088
2020-03-31 17:41:39 GMT 39.636948 -105.365601 24,000 247 318 1088
2020-03-31 17:41:35 GMT 39.639462 -105.358276 23,925 247 316 1024
2020-03-31 17:41:32 GMT 39.641186 -105.353088 23,875 247 315 1024
2020-03-31 17:41:29 GMT 39.643341 -105.346703 23,825 247 313 1152
2020-03-31 17:41:25 GMT 39.645172 -105.341209 23,775 247 311 1280
2020-03-31 17:41:22 GMT 39.646545 -105.337090 23,675 247 310 1472
2020-03-31 17:41:19 GMT 39.648540 -105.331116 23,650 247 310 1600
2020-03-31 17:41:16 GMT 39.650776 -105.324280 23,500 247 310 1984
2020-03-31 17:41:10 GMT 39.654079 -105.314392 23,375 247 310 2176
2020-03-31 17:41:07 GMT 39.655151 -105.311180 23,100 247 312 2304
2020-03-31 17:41:04 GMT 39.657619 -105.303772 23,075 247 313 2240
2020-03-31 17:41:01 GMT 39.659042 -105.299477 22,975 248 314 2048
2020-03-31 17:40:57 GMT 39.661057 -105.293205 22,900 248 315 1920
2020-03-31 17:40:54 GMT 39.663250 -105.286438 22,750 247 316 1536
2020-03-31 17:40:49 GMT 39.666000 -105.278221 22,625 247 316 1216
2020-03-31 17:40:46 GMT 39.667145 -105.274757 22,600 247 316 1152
2020-03-31 17:40:43 GMT 39.669205 -105.268486 22,550 247 316 1152
2020-03-31 17:40:40 GMT 39.671211 -105.262390 22,450 248 315 1344
2020-03-31 17:40:37 GMT 39.672935 -105.257202 22,375 247 314 1408
2020-03-31 17:40:33 GMT 39.675247 -105.250099 22,300 247 313 1088
2020-03-31 17:40:29 GMT 39.677170 -105.244247 22,275 247 312 768
2020-03-31 17:40:26 GMT 39.678772 -105.239471 22,250 247 310 512
2020-03-31 17:40:23 GMT 39.680466 -105.234337 22,075 248 300 1280
2020-03-31 17:40:19 GMT 39.682663 -105.227585 22,175 248 305 640
2020-03-31 17:40:16 GMT 39.684631 -105.221619 22,100 248 300 1216
2020-03-31 17:40:13 GMT 39.686005 -105.217262 22,025 248 299 1600
2020-03-31 17:40:10 GMT 39.687836 -105.211647 21,925 248 298 1792
2020-03-31 17:40:07 GMT 39.690670 -105.202942 21,825 248 296 2176
2020-03-31 17:40:01 GMT 39.692276 -105.197853 21,675 248 295 2560
2020-03-31 17:39:56 GMT 39.694702 -105.190331 21,375 248 297 2944
2020-03-31 17:39:53 GMT 39.696770 -105.183960 21,275 248 297 2880
2020-03-31 17:39:49 GMT 39.698353 -105.179016 21,050 248 299 2624
2020-03-31 17:39:45 GMT 39.701145 -105.170410 20,875 248 299 2560
2020-03-31 17:39:42 GMT 39.702354 -105.166748 20,725 248 300 2368
2020-03-31 17:39:39 GMT 39.703903 -105.161972 20,650 248 300 2176
2020-03-31 17:39:36 GMT 39.705872 -105.155998 20,650 248 300 2176
2020-03-31 17:39:32 GMT 39.707382 -105.151344 20,400 248 299 2048
2020-03-31 17:39:29 GMT 39.709396 -105.145073 20,400 248 299 2048
2020-03-31 17:39:25 GMT 39.711525 -105.138672 20,200 247 298 1792
2020-03-31 17:39:22 GMT 39.713573 -105.132385 20,150 248 297 1664
2020-03-31 17:39:19 GMT 39.715111 -105.127808 20,075 247 296 1920
2020-03-31 17:39:15 GMT 39.717205 -105.121277 19,925 248 295 2176
2020-03-31 17:39:11 GMT 39.718872 -105.116173 19,725 248 294 2368
2020-03-31 17:39:08 GMT 39.720978 -105.109665 19,650 248 294 2432
2020-03-31 17:39:05 GMT 39.722607 -105.104675 19,600 248 293 2432
2020-03-31 17:39:02 GMT 39.723446 -105.102051 19,425 248 293 2368
2020-03-31 17:38:59 GMT 39.726013 -105.094078 19,300 248 293 2240
2020-03-31 17:38:56 GMT 39.727539 -105.089417 19,200 248 293 2240
2020-03-31 17:38:51 GMT 39.729996 -105.081779 19,050 248 293 2240
2020-03-31 17:38:48 GMT 39.733543 -105.070984 18,850 248 292 2304
2020-03-31 17:38:44 GMT 39.733543 -105.070984 18,775 248 292 2304
2020-03-31 17:38:40 GMT 39.735535 -105.065002 18,650 248 292 2176
2020-03-31 17:38:36 GMT 39.737782 -105.058044 18,500 248 290 1984
2020-03-31 17:38:33 GMT 39.740993 -105.048096 18,375 248 289 1856
2020-03-31 17:38:30 GMT 39.740993 -105.048096 18,300 248 288 1792
2020-03-31 17:38:26 GMT 39.742722 -105.042854 18,250 248 286 1728
2020-03-31 17:38:23 GMT 39.744484 -105.037292 18,125 249 284 1600
2020-03-31 17:38:20 GMT 39.745972 -105.032402 18,050 250 281 1792
2020-03-31 17:38:17 GMT 39.749001 -105.021484 17,825 253 277 2304
2020-03-31 17:38:13 GMT 39.749001 -105.021484 17,800 254 275 2432
2020-03-31 17:38:10 GMT 39.749744 -105.018311 17,700 254 275 2560
2020-03-31 17:38:07 GMT 39.751328 -105.011353 17,500 254 273 2624
2020-03-31 17:38:04 GMT 39.752071 -105.008240 17,400 254 272 3136
2020-03-31 17:38:01 GMT 39.753471 -105.002258 17,250 253 272 3840
2020-03-31 17:37:58 GMT 39.754395 -104.998367 16,925 253 272 4032
2020-03-31 17:37:55 GMT 39.755447 -104.994011 16,925 253 273 4288
2020-03-31 17:37:52 GMT 39.756962 -104.987610 16,600 254 275 4544
2020-03-31 17:37:48 GMT 39.759659 -104.975616 16,225 254 278 4352
2020-03-31 17:37:44 GMT 39.759659 -104.975616 16,075 255 280 4032
2020-03-31 17:37:41 GMT 39.760574 -104.971382 15,900 255 281 4096
2020-03-31 17:37:38 GMT 39.761570 -104.966675 15,675 255 282 3712
2020-03-31 17:37:35 GMT 39.762920 -104.960510 15,500 255 283 3392
2020-03-31 17:37:29 GMT 39.769459 -104.949593 14,200 261 264 2592
2020-03-31 17:37:26 GMT 39.770012 -104.944878 14,200 261 264 3904
2020-03-31 17:37:23 GMT 39.770550 -104.940178 14,200 261 264 3904
2020-03-31 17:37:20 GMT 39.771099 -104.935478 14,200 261 264 3904
2020-03-31 17:37:17 GMT 39.771641 -104.930771 14,200 261 264 3904
2020-03-31 17:37:14 GMT 39.772179 -104.926071 14,200 261 264 3904
2020-03-31 17:37:11 GMT 39.772732 -104.921371 14,200 261 264 3904
2020-03-31 17:37:08 GMT 39.773811 -104.911957 14,375 259 272 1536
2020-03-31 17:37:05 GMT 39.773811 -104.911957 14,200 261 264 3904
2020-03-31 17:37:02 GMT 39.774361 -104.907257 14,200 261 264 3904
2020-03-31 17:36:59 GMT 39.774899 -104.902550 14,200 261 264 3904
2020-03-31 17:36:56 GMT 39.776272 -104.893173 13,900 262 263 3904
2020-03-31 17:36:53 GMT 39.776272 -104.893173 13,900 262 263 3904
2020-03-31 17:36:50 GMT 39.776741 -104.888481 13,900 262 263 3904
2020-03-31 17:36:47 GMT 39.777290 -104.884140 13,700 262 268 3904
2020-03-31 17:36:44 GMT 39.777840 -104.879631 13,700 262 268 3904
2020-03-31 17:36:41 GMT 39.778309 -104.874786 13,100 263 274 3904
2020-03-31 17:36:38 GMT 39.778790 -104.870148 13,100 263 274 3904
2020-03-31 17:36:35 GMT 39.779320 -104.865501 13,100 263 274 3904
2020-03-31 17:36:32 GMT 39.779789 -104.860550 12,800 263 277 3904
2020-03-31 17:36:29 GMT 39.780239 -104.855797 12,400 263 280 3904
2020-03-31 17:36:26 GMT 39.780701 -104.850998 12,100 263 283 768
2020-03-31 17:36:23 GMT 39.781189 -104.845947 12,100 263 283 768
2020-03-31 17:36:20 GMT 39.781731 -104.841049 12,100 263 283 768
2020-03-31 17:36:17 GMT 39.782200 -104.835968 11,650 263 281 4736
2020-03-31 17:36:14 GMT 39.782761 -104.831009 11,300 263 286 768
2020-03-31 17:36:11 GMT 39.783291 -104.825890 11,000 263 285 768
2020-03-31 17:36:08 GMT 39.783730 -104.820778 11,000 263 285 768
2020-03-31 17:36:05 GMT 39.784191 -104.815659 10,500 263 285 768
2020-03-31 17:36:02 GMT 39.784592 -104.810577 10,500 263 285 768
2020-03-31 17:35:59 GMT 39.785419 -104.800217 10,200 263 283 768
2020-03-31 17:35:56 GMT 39.785789 -104.795052 10,200 263 283 768
2020-03-31 17:35:53 GMT 39.785789 -104.795052 9,800 263 282 768
2020-03-31 17:35:50 GMT 39.786240 -104.790001 9,800 263 282 768
2020-03-31 17:35:47 GMT 39.786720 -104.784958 9,800 263 283 768
2020-03-31 17:35:44 GMT 39.787189 -104.780502 9,800 263 283 768
2020-03-31 17:35:41 GMT 39.787640 -104.775291 9,500 264 291 768
2020-03-31 17:35:38 GMT 39.788342 -104.770157 9,000 265 289 768
2020-03-31 17:35:35 GMT 39.788509 -104.765068 9,000 265 289 768
2020-03-31 17:35:32 GMT 39.788898 -104.759911 9,000 264 288 768
2020-03-31 17:35:29 GMT 39.789268 -104.754677 8,800 264 280 768
2020-03-31 17:35:26 GMT 39.789661 -104.749649 8,800 264 280 640
2020-03-31 17:35:23 GMT 39.790020 -104.744423 8,700 263 267 640
2020-03-31 17:35:20 GMT 39.790878 -104.734467 8,700 264 245 640
2020-03-31 17:35:17 GMT 39.790878 -104.734467 8,600 264 238 640
2020-03-31 17:35:14 GMT 39.791302 -104.729622 8,600 264 238 640
2020-03-31 17:35:11 GMT 39.791771 -104.725288 8,600 264 238 640
2020-03-31 17:35:08 GMT 39.792068 -104.721069 8,400 264 236 640
2020-03-31 17:35:05 GMT 39.792339 -104.717041 8,400 265 243 -544
2020-03-31 17:35:02 GMT 39.792629 -104.712730 8,375 265 244 2528
2020-03-31 17:34:59 GMT 39.792938 -104.708359 8,375 265 241 2528
2020-03-31 17:34:56 GMT 39.793221 -104.704048 8,200 266 235 2528
2020-03-31 17:34:53 GMT 39.793442 -104.699799 8,200 266 226 2528
2020-03-31 17:34:50 GMT 39.793579 -104.695824 8,100 265 227 2528
2020-03-31 17:34:47 GMT 39.793839 -104.691788 7,900 265 221 2528
2020-03-31 17:34:44 GMT 39.794121 -104.687820 7,900 267 214 2528
2020-03-31 17:34:41 GMT 39.794300 -104.683998 7,675 267 212 2528
2020-03-31 17:34:38 GMT 39.794540 -104.680183 7,675 266 211 2528
2020-03-31 17:34:35 GMT 39.795158 -104.672630 7,400 262 212 2528
2020-03-31 17:34:32 GMT 39.795158 -104.672630 7,400 259 210 2528
2020-03-31 17:34:29 GMT 39.795750 -104.668983 7,350 252 207 2528
2020-03-31 17:34:26 GMT 39.796520 -104.665421 7,275 248 206 2240
2020-03-31 17:34:23 GMT 39.798931 -104.658882 7,100 236 202 2240
2020-03-31 17:34:20 GMT 39.798931 -104.658882 7,050 232 203 2240
2020-03-31 17:34:17 GMT 39.800621 -104.656021 6,900 224 200 2240
2020-03-31 17:34:14 GMT 39.802540 -104.653450 6,800 221 195 -256
2020-03-31 17:34:11 GMT 39.806591 -104.649101 6,800 213 186 -288
2020-03-31 17:34:08 GMT 39.806591 -104.649101 6,800 209 187 -288
2020-03-31 17:34:05 GMT 39.808830 -104.647430 6,750 206 184 -288
2020-03-31 17:34:02 GMT 39.811131 -104.646042 6,700 201 177 2144
2020-03-31 17:33:59 GMT 39.813431 -104.644943 6,575 197 172 2144
2020-03-31 17:33:56 GMT 39.815739 -104.643951 6,450 195 172 2144
2020-03-31 17:33:53 GMT 39.818031 -104.643173 6,450 192 176 2144
2020-03-31 17:33:50 GMT 39.820438 -104.642517 6,325 188 173 2144
2020-03-31 17:33:47 GMT 39.822811 -104.642029 6,200 184 172 2144
2020-03-31 17:33:44 GMT 39.825199 -104.641724 6,125 182 175 2144
2020-03-31 17:33:41 GMT 39.827599 -104.641602 6,025 181 174 2144
2020-03-31 17:33:38 GMT 39.830002 -104.641457 5,950 182 174 2144
2020-03-31 17:33:35 GMT 39.832409 -104.641586 5,775 179 174 2144
2020-03-31 17:33:32 GMT 39.834801 -104.641541 5,725 179 172 2144
2020-03-31 17:33:29 GMT 39.837189 -104.641563 5,675 180 167 2144
2020-03-31 17:33:26 GMT 39.839500 -104.641563 5,600 180 165 2144
2020-03-31 17:33:23 GMT 39.841801 -104.641541 5,400 180 166 0
2020-03-31 17:33:20 GMT 39.844090 -104.641541 5,400 180 165 0
2020-03-31 17:33:17 GMT 39.846371 -104.641487 5,375 179 161 0
2020-03-31 17:33:14 GMT 39.848560 -104.641502 5,325 179 160 0
2020-03-31 17:33:11 GMT 39.850700 -104.641510 5,300 180 148 0
2020-03-31 17:33:08 GMT 39.852760 -104.641479 5,300 181 139 0
2020-03-31 17:33:05 GMT 39.854649 -104.641411 5,300 181 133 -480
2020-03-31 17:33:02 GMT 39.858040 -104.641411 0 180 112
2020-03-31 17:32:59 GMT 39.858040 -104.641411 0 180 102
2020-03-31 17:32:56 GMT 39.859470 -104.641342 0 179 95
2020-03-31 17:32:53 GMT 39.860748 -104.641357 0 180 86
2020-03-31 17:32:50 GMT 39.861851 -104.641357 0 180 78
2020-03-31 17:32:47 GMT 39.862770 -104.641327 0 181 43
2020-03-31 17:32:44 GMT 39.863480 -104.641319 0 179 34
2020-03-31 17:32:41 GMT 39.863979 -104.641319 0 178 22
2020-03-31 17:32:38 GMT 39.864250 -104.641319 0 180 14
2020-03-31 17:32:35 GMT 39.864399 -104.641342 0 189 6
2020-03-31 17:32:32 GMT 39.864460 -104.641327 0 189 8
2020-03-31 17:32:29 GMT 39.864578 -104.641296 0 184 7
2020-03-31 17:32:26 GMT 39.864681 -104.641296 0 171 7
2020-03-31 17:32:23 GMT 39.864792 -104.641327 0 107 5
2020-03-31 17:32:20 GMT 39.864830 -104.641388 0 100 9
2020-03-31 17:32:17 GMT 39.864880 -104.641579 0 89 15
2020-03-31 17:32:14 GMT 39.864849 -104.641792 0 88 16
2020-03-31 17:32:11 GMT 39.864849 -104.642082 0 87 20
2020-03-31 17:32:08 GMT 39.864861 -104.642464 0 89 17
2020-03-31 17:32:05 GMT 39.864849 -104.642761 0 91 17
2020-03-31 17:32:02 GMT 39.864868 -104.643433 0 91 21
2020-03-31 17:31:59 GMT 39.864868 -104.643433 0 87 20
2020-03-31 17:31:56 GMT 39.864861 -104.643791 0 90 23
2020-03-31 17:31:53 GMT 39.864868 -104.644203 0 89 22
2020-03-31 17:31:50 GMT 39.864861 -104.644608 0 92 22
2020-03-31 17:31:47 GMT 39.864880 -104.645012 0 88 22
2020-03-31 17:31:44 GMT 39.864880 -104.645393 0 89 22
2020-03-31 17:31:41 GMT 39.864880 -104.645760 0 92 25
2020-03-31 17:31:38 GMT 39.864868 -104.646217 0 88 24
2020-03-31 17:31:35 GMT 39.864899 -104.646629 0 85 28
2020-03-31 17:31:32 GMT 39.864891 -104.647163 0 90 24
2020-03-31 17:31:29 GMT 39.864880 -104.647621 0 86 25
2020-03-31 17:31:26 GMT 39.864899 -104.648399 0 91 22
2020-03-31 17:31:23 GMT 39.864899 -104.648399 0 90 23
2020-03-31 17:31:20 GMT 39.864891 -104.648804 0 92 25
2020-03-31 17:31:17 GMT 39.864899 -104.649239 0 91 25
2020-03-31 17:31:14 GMT 39.864922 -104.649712 0 87 27
2020-03-31 17:31:11 GMT 39.864899 -104.650177 0 94 30
2020-03-31 17:31:08 GMT 39.864922 -104.650719 0 88 30
2020-03-31 17:31:05 GMT 39.864910 -104.651253 0 93 29
2020-03-31 17:31:02 GMT 39.864929 -104.651779 0 90 29
2020-03-31 17:30:59 GMT 39.864922 -104.652290 0 88 26
2020-03-31 17:30:56 GMT 39.864922 -104.652733 0 89 29
2020-03-31 17:30:53 GMT 39.864929 -104.653709 0 96 24
2020-03-31 17:30:50 GMT 39.864929 -104.653709 0 90 23
2020-03-31 17:30:47 GMT 39.864941 -104.654129 0 90 20
2020-03-31 17:30:44 GMT 39.864929 -104.654503 0 91 20
2020-03-31 17:30:41 GMT 39.864941 -104.654869 0 90 21
2020-03-31 17:30:38 GMT 39.864929 -104.655289 0 92 22
2020-03-31 17:30:35 GMT 39.864929 -104.655708 0 95 27
2020-03-31 17:30:32 GMT 39.864990 -104.656174 0 85 23
2020-03-31 17:30:29 GMT 39.864941 -104.656593 0 90 22
2020-03-31 17:30:26 GMT 39.864971 -104.657021 0 88 19
2020-03-31 17:30:23 GMT 39.864960 -104.657372 0 92 21
2020-03-31 17:30:20 GMT 39.864990 -104.657738 0 85 18
2020-03-31 17:30:17 GMT 39.864971 -104.658012 0 91 16
2020-03-31 17:30:14 GMT 39.864971 -104.658340 0 85 17
2020-03-31 17:30:11 GMT 39.864948 -104.658638 0 92 17
2020-03-31 17:30:08 GMT 39.864971 -104.658951 0 92 13
2020-03-31 17:30:04 GMT 39.864979 -104.659264 0 96 13
2020-03-31 17:30:01 GMT 39.865002 -104.659538 0 89 14
2020-03-31 17:29:58 GMT 39.864979 -104.659767 0 88 12
2020-03-31 17:29:55 GMT 39.864960 -104.659981 0 96 14
2020-03-31 17:29:52 GMT 39.864979 -104.660248 0 91 12
2020-03-31 17:29:49 GMT 39.864979 -104.660667 0 90 12
2020-03-31 17:29:46 GMT 39.864979 -104.660667 0 87 14
2020-03-31 17:29:43 GMT 39.864990 -104.660881 0 91 14
2020-03-31 17:29:40 GMT 39.865002 -104.661133 0 91 12
2020-03-31 17:29:37 GMT 39.864979 -104.661324 0 97 14
2020-03-31 17:29:34 GMT 39.864990 -104.661552 0 86 14
2020-03-31 17:29:31 GMT 39.864979 -104.661789 0 68 14
2020-03-31 17:29:28 GMT 39.864922 -104.662041 0 50 15
2020-03-31 17:29:25 GMT 39.864780 -104.662201 0 8 16
2020-03-31 17:29:22 GMT 39.864578 -104.662216 0 359 18
2020-03-31 17:29:19 GMT 39.864342 -104.662231 0 4 19
2020-03-31 17:29:16 GMT 39.864079 -104.662247 0 5 19
2020-03-31 17:29:13 GMT 39.863838 -104.662292 0 356 19
2020-03-31 17:29:10 GMT 39.863560 -104.662247 0 357 18
2020-03-31 17:29:07 GMT 39.863312 -104.662277 0 355 20
2020-03-31 17:29:04 GMT 39.862759 -104.662270 0 5 20
2020-03-31 17:29:01 GMT 39.862759 -104.662270 0 0 17
2020-03-31 17:28:58 GMT 39.862518 -104.662270 0 4 17
2020-03-31 17:28:55 GMT 39.862289 -104.662277 0 359 16
2020-03-31 17:28:52 GMT 39.862061 -104.662262 0 0 14
2020-03-31 17:28:49 GMT 39.861870 -104.662292 0 1 11
2020-03-31 17:28:46 GMT 39.861698 -104.662300 0 358 13
2020-03-31 17:28:43 GMT 39.861542 -104.662277 0 6 11
2020-03-31 17:28:40 GMT 39.861370 -104.662308 0 28 11
2020-03-31 17:28:37 GMT 39.861259 -104.662361 0 47 12
2020-03-31 17:28:34 GMT 39.861130 -104.662498 0 58 12
2020-03-31 17:28:31 GMT 39.861061 -104.662651 0 86 11
2020-03-31 17:28:28 GMT 39.861050 -104.662880 0 93 13
2020-03-31 17:28:25 GMT 39.861061 -104.663048 0 90 13
2020-03-31 17:28:22 GMT 39.861069 -104.663300 0 88 8
2020-03-31 17:28:19 GMT 39.861050 -104.663467 0 91 10
2020-03-31 17:28:16 GMT 39.861050 -104.663651 0 82 8
2020-03-31 17:28:13 GMT 39.861038 -104.663818 0 94 8
2020-03-31 17:28:10 GMT 39.861061 -104.663971 0 102 9
2020-03-31 17:28:07 GMT 39.861080 -104.664101 0 77 6
2020-03-31 17:28:04 GMT 39.861061 -104.664192 0 93 6
2020-03-31 17:28:01 GMT 39.861050 -104.664299 0 96 6
2020-03-31 17:27:58 GMT 39.861061 -104.664383 0 90 6
2020-03-31 17:27:55 GMT 39.861038 -104.664513 0 87 5
2020-03-31 17:27:52 GMT 39.861031 -104.664619 0 57 9
2020-03-31 17:27:49 GMT 39.861012 -104.664673 0 46 13
2020-03-31 17:27:46 GMT 39.860909 -104.664871 0 28 10
2020-03-31 17:27:43 GMT 39.860779 -104.664963 0 2 13
2020-03-31 17:27:40 GMT 39.860611 -104.664978 0 0 12
2020-03-31 17:27:37 GMT 39.860470 -104.664993 0 345 13
2020-03-31 17:27:34 GMT 39.860291 -104.664948 0 347 11
2020-03-31 17:27:31 GMT 39.860142 -104.664879 0 355 11
2020-03-31 17:27:28 GMT 39.859970 -104.664841 0 0 12
2020-03-31 17:27:25 GMT 39.859829 -104.664864 0 356 8
2020-03-31 17:27:22 GMT 39.859718 -104.664864 0 4 7
2020-03-31 17:27:19 GMT 39.859581 -104.664818 0 12 8
2020-03-31 17:27:16 GMT 39.859482 -104.664864 0 3 7
2020-03-31 17:27:13 GMT 39.859348 -104.664841 0 354 11
2020-03-31 17:27:10 GMT 39.859219 -104.664879 0 349 7
2020-03-31 17:27:07 GMT 39.859131 -104.664871 0 353 9
2020-03-31 17:27:04 GMT 39.858990 -104.664833 0 0 11
2020-03-31 17:27:01 GMT 39.858871 -104.664848 0 3 8
2020-03-31 17:26:58 GMT 39.858742 -104.664833 0 3 10
2020-03-31 17:26:55 GMT 39.858631 -104.664886 0 357 12
2020-03-31 17:26:52 GMT 39.858471 -104.664871 0 15 9
2020-03-31 17:26:49 GMT 39.858349 -104.664909 0 2 9
2020-03-31 17:26:46 GMT 39.858250 -104.664917 0 7 6
2020-03-31 17:26:43 GMT 39.858170 -104.664932 0 39 4
2020-03-31 17:26:40 GMT 39.858101 -104.664993 0 26 4
2020-03-31 17:26:37 GMT 39.858051 -104.665001 0 42 3
2020-03-31 17:26:34 GMT 39.858021 -104.665062 0 49 4
2020-03-31 17:26:31 GMT 39.857979 -104.665047 0 76 1
2020-03-31 17:26:28 GMT 39.857922 -104.664963 0 83 0
2020-03-31 17:26:25 GMT 39.857922 -104.664963 0 83 0
2020-03-31 17:26:22 GMT 39.857910 -104.665009 0 82 0
2020-03-31 17:26:19 GMT 39.857929 -104.664993 0 82 0
2020-03-31 17:26:16 GMT 39.857929 -104.664970 0 83 0
2020-03-31 17:26:13 GMT 39.857922 -104.664993 0 81 1
2020-03-31 17:26:10 GMT 39.857941 -104.664970 0 80 0
2020-03-31 17:26:07 GMT 39.857971 -104.665001 0 80 0
2020-03-31 17:26:04 GMT 39.857929 -104.665009 0 82 1
2020-03-31 17:26:01 GMT 39.857910 -104.665009 0 83 0
2020-03-31 17:25:58 GMT 39.857922 -104.664948 0 84 0
2020-03-31 17:25:55 GMT 39.857910 -104.664948 0 84 0
2020-03-31 17:25:52 GMT 39.857922 -104.664970 0 84 0
2020-03-31 17:25:49 GMT 39.857922 -104.665001 0 84 0
2020-03-31 17:25:46 GMT 39.857971 -104.664940 0 88 1
2020-03-31 17:25:43 GMT 39.857922 -104.664917 0 94 2
2020-03-31 17:25:40 GMT 39.857929 -104.664871 0 96 1
2020-03-31 17:25:37 GMT 39.857941 -104.664932 0 96 0
2020-03-31 17:25:34 GMT 39.857929 -104.664978 0 96 1
2020-03-31 17:25:31 GMT 39.857910 -104.664970 0 96 1
2020-03-31 17:25:28 GMT 39.857910 -104.664970 0 90 2
2020-03-31 17:25:25 GMT 39.857929 -104.665001 0 88 2
2020-03-31 17:25:22 GMT 39.857948 -104.664970 0 87 0
2020-03-31 17:25:19 GMT 39.857899 -104.664932 0 82 2
2020-03-31 17:25:16 GMT 39.857899 -104.664932 0 79 3
2020-03-31 17:25:13 GMT 39.857910 -104.664917 0 79 1
2020-03-31 17:25:10 GMT 39.857929 -104.664993 0 78 2
2020-03-31 17:25:07 GMT 39.857922 -104.664978 0 77 0
2020-03-31 17:25:04 GMT 39.857922 -104.664940 0 77 0
2020-03-31 17:25:01 GMT 39.857929 -104.664948 0 77 0
2020-03-31 17:24:58 GMT 39.857929 -104.664917 0 77 0
2020-03-31 17:24:55 GMT 39.857929 -104.664948 0 76 0
2020-03-31 17:24:52 GMT 39.857922 -104.664917 0 77 0
2020-03-31 17:24:49 GMT 39.857929 -104.664932 0 76 0
2020-03-31 17:24:46 GMT 39.857948 -104.665009 0 85 2
2020-03-31 17:24:43 GMT 39.857922 -104.664963 0 87 0
2020-03-31 17:24:40 GMT 39.857922 -104.664948 0 87 0
2020-03-31 17:24:37 GMT 39.857948 -104.664978 0 89 1
2020-03-31 17:24:34 GMT 39.857941 -104.664993 0 93 0
2020-03-31 17:24:31 GMT 39.857929 -104.664978 0 93 0
2020-03-31 17:24:28 GMT 39.857922 -104.665001 0 93 0
2020-03-31 17:24:25 GMT 39.857929 -104.664993 0 94 0
2020-03-31 17:24:22 GMT 39.857891 -104.665001 0 90 2
2020-03-31 17:24:19 GMT 39.857910 -104.664993 0 85 2
2020-03-31 17:24:16 GMT 39.857948 -104.664978 0 83 0
2020-03-31 17:24:13 GMT 39.857941 -104.664963 0 83 1
2020-03-31 17:24:10 GMT 39.857941 -104.664963 0 83 0
2020-03-31 17:24:07 GMT 39.857929 -104.665009 0 83 0
2020-03-31 17:24:04 GMT 39.857941 -104.665001 0 83 1
2020-03-31 17:24:01 GMT 39.857929 -104.664978 0 83 0
2020-03-31 17:23:58 GMT 39.857929 -104.664993 0 83 0
2020-03-31 17:23:55 GMT 39.857922 -104.665024 0 89 2
2020-03-31 17:23:52 GMT 39.857922 -104.664963 0 89 2
2020-03-31 17:23:49 GMT 39.857929 -104.664978 0 35 2
2020-03-31 17:23:46 GMT 39.857929 -104.665009 0 26 1
2020-03-31 17:23:43 GMT 39.857929 -104.665062 0 21 2
2020-03-31 17:23:40 GMT 39.857948 -104.665092 0 30 9
2020-03-31 17:23:37 GMT 39.857769 -104.665161 0 310 6

Making use of Plane Finder data

You are free to use the raw flight data, aircraft information and images provided in this report for your own purposes provided the data is correctly attributed to Plane Finder. We ask that you please credit Plane Finder and link to planefinder.net in close proximity to the content.

Optionally one of the following logos (no smaller then 150x24px) can be used and must link to planefinder.net

Embedding the Plane Finder map

You are welcome to embed the Plane Finder playback map on your website to offer visitors a more interactive experience. We suggest using the following HTML code:

<iframe src="//planefinder.net/data/report/UA5261-N902EV-7700-squawk-2020-03-31/map" width="800" height="600" seamless="seamless"></iframe>

Where our data comes from

Plane Finder has a global network of data feeds and antenna radars that receive data broadcast directly from aircraft. The primary technologies used are ADS-B and MLAT. We also show feeds from the FAA and a FLARM glider feed.

Click here to find out more about the Plane Finder network.

How we collect our data